Weather History for Cumberland, MD

Change the Weather History Date:

Saturday, December 7, 2013

  Actual Average (KMRB) Record (KMRB)
Temperature  
Mean Temperature 32 °F 36 °F  
Max Temperature 35 °F 45 °F 78 °F (1951)
Min Temperature 30 °F 28 °F 2 °F (2002)
Degree Days  
Heating Degree Days 32 29  
Month to date heating degree days 193  
Since 1 July heating degree days 1263  
Cooling Degree Days 0 0  
Month to date cooling degree days 0  
Year to date cooling degree days 895  
Moisture  
Dew Point 25 °F    
Average Humidity 70    
Maximum Humidity 93    
Minimum Humidity 56    
Precipitation  
Precipitation 0.00 in 0.10 in 1.46 in (2011)
Month to date precipitation 0.73  
Year to date precipitation 36.72  
Sea Level Pressure  
Sea Level Pressure 30.44 in    
Wind  
Wind Speed 6 mph (NNW)    
Max Wind Speed 13 mph    
Max Gust Speed 21 mph    
Visibility 10 miles    
Events      
T = Trace of Precipitation, MM = Missing Value Source: NWS Daily Summary

Daily Weather History Graph

Daily Weather History Graph

Search for Another Location

Airport:

Trip Planner

Search our weather history database for the weather conditions in past years. The results will help you decide how hot, cold, wet, or windy it might be!

Date:

Astronomy

Dec. 07, 2013 Rise Set
Actual Time 7:22 AM EST 4:50 PM EST
Civil Twilight 6:52 AM EST 5:20 PM EST
Nautical Twilight 6:18 AM EST 5:54 PM EST
Astronomical Twilight 5:46 AM EST 6:27 PM EST
Moon 11:07 AM EST (12/7) 10:29 PM EST (12/7)
Length of Visible Light 10h 28m
Length of Day
9h 28m
Waxing Crescent, 29% of the Moon is Illuminated
Dec 7
Waxing Crescent
Dec 9
First Quarter
Dec 17
Full
Dec 25
Last Quarter
Jan 1
New

Hourly Weather History & Observations

Time (EST) Temp. Windchill Dew Point Humidity Pressure Visibility Wind Dir Wind Speed Gust Speed Precip Events Conditions
12:13 AM 35.6 °F 30.7 °F 33.8 °F 93% 30.23 in 10.0 mi North 5.8 mph - N/A   Overcast
12:33 AM 35.6 °F 29.9 °F 33.8 °F 93% 30.23 in 10.0 mi North 6.9 mph - N/A   Overcast
12:53 AM 35.6 °F 29.9 °F 33.8 °F 93% 30.25 in 10.0 mi North 6.9 mph - N/A   Overcast
1:13 AM 35.6 °F 30.7 °F 32.0 °F 87% 30.24 in 10.0 mi NNE 5.8 mph - N/A   Overcast
1:33 AM 35.6 °F 31.7 °F 32.0 °F 87% 30.26 in 10.0 mi North 4.6 mph - N/A   Overcast
1:53 AM 35.6 °F 31.7 °F 32.0 °F 87% 30.26 in 10.0 mi North 4.6 mph - N/A   Overcast
2:13 AM 35.6 °F 31.7 °F 32.0 °F 87% 30.26 in 10.0 mi North 4.6 mph - N/A   Overcast
2:33 AM 35.6 °F 31.7 °F 32.0 °F 87% 30.27 in 10.0 mi NNE 4.6 mph - N/A   Mostly Cloudy
2:53 AM 35.6 °F - 32.0 °F 87% 30.28 in 10.0 mi Calm Calm - N/A   Mostly Cloudy
3:13 AM 35.6 °F 31.7 °F 32.0 °F 87% 30.29 in 10.0 mi NNW 4.6 mph - N/A   Overcast
3:33 AM 35.6 °F 31.7 °F 30.2 °F 81% 30.29 in 10.0 mi NW 4.6 mph - N/A   Overcast
3:53 AM 35.6 °F 31.7 °F 30.2 °F 81% 30.29 in 10.0 mi NNW 4.6 mph - N/A   Overcast
4:14 AM 35.6 °F 29.9 °F 30.2 °F 81% 30.29 in 10.0 mi NNW 6.9 mph - N/A   Overcast
4:34 AM 35.6 °F 30.7 °F 30.2 °F 81% 30.31 in 10.0 mi NW 5.8 mph - N/A   Overcast
4:54 AM 35.6 °F 31.7 °F 30.2 °F 81% 30.32 in 10.0 mi NW 4.6 mph - N/A   Mostly Cloudy
5:14 AM 35.6 °F 31.7 °F 28.4 °F 75% 30.32 in 10.0 mi NNW 4.6 mph - N/A   Overcast
5:34 AM 35.6 °F 29.9 °F 28.4 °F 75% 30.33 in 10.0 mi NNW 6.9 mph - N/A   Overcast
5:54 AM 35.6 °F 30.7 °F 28.4 °F 75% 30.35 in 10.0 mi NNW 5.8 mph - N/A   Overcast
6:13 AM 35.6 °F 32.8 °F 28.4 °F 75% 30.36 in 10.0 mi NNW 3.5 mph - N/A   Overcast
6:34 AM 35.6 °F 30.7 °F 28.4 °F 75% 30.37 in 10.0 mi NNW 5.8 mph - N/A   Mostly Cloudy
6:54 AM 35.6 °F 32.8 °F 28.4 °F 75% 30.37 in 10.0 mi NNW 3.5 mph - N/A   Mostly Cloudy
7:14 AM 33.8 °F 26.4 °F 28.4 °F 81% 30.39 in 10.0 mi NNW 9.2 mph - N/A   Mostly Cloudy
7:34 AM 33.8 °F 25.8 °F 26.6 °F 75% 30.40 in 10.0 mi NNW 10.4 mph - N/A   Mostly Cloudy
7:54 AM 33.8 °F 26.4 °F 26.6 °F 75% 30.41 in 10.0 mi NNW 9.2 mph - N/A   Overcast
8:14 AM 33.8 °F 24.8 °F 26.6 °F 75% 30.41 in 10.0 mi NNW 12.7 mph 18.4 mph N/A   Overcast
8:34 AM 33.8 °F 24.8 °F 26.6 °F 75% 30.43 in 10.0 mi NNW 12.7 mph 20.7 mph N/A   Mostly Cloudy
8:54 AM 33.8 °F 27.0 °F 24.8 °F 70% 30.44 in 10.0 mi North 8.1 mph 17.3 mph N/A   Overcast
9:14 AM 33.8 °F 26.4 °F 24.8 °F 70% 30.45 in 10.0 mi North 9.2 mph 16.1 mph N/A   Overcast
9:34 AM 33.8 °F 27.0 °F 24.8 °F 70% 30.47 in 10.0 mi North 8.1 mph - N/A   Overcast
9:54 AM 33.8 °F 29.6 °F 26.6 °F 75% 30.48 in 10.0 mi North 4.6 mph 16.1 mph N/A   Overcast
10:14 AM 33.8 °F 26.4 °F 26.6 °F 75% 30.48 in 10.0 mi North 9.2 mph - N/A   Overcast
10:34 AM 33.8 °F 27.7 °F 24.8 °F 70% 30.48 in 10.0 mi North 6.9 mph - N/A   Mostly Cloudy
10:54 AM 33.8 °F 25.8 °F 24.8 °F 70% 30.48 in 10.0 mi NNW 10.4 mph 17.3 mph N/A   Mostly Cloudy
11:14 AM 33.8 °F 27.0 °F 24.8 °F 70% 30.48 in 10.0 mi North 8.1 mph - N/A   Mostly Cloudy
11:34 AM 33.8 °F - 24.8 °F 70% 30.47 in 10.0 mi Calm Calm - N/A   Scattered Clouds
11:54 AM 33.8 °F 29.6 °F 26.6 °F 75% 30.47 in 10.0 mi North 4.6 mph - N/A   Scattered Clouds
12:14 PM 35.6 °F 29.2 °F 26.6 °F 70% 30.47 in 10.0 mi NNW 8.1 mph - N/A   Mostly Cloudy
12:34 PM 35.6 °F 28.0 °F 26.6 °F 70% 30.46 in 10.0 mi NNW 10.4 mph 17.3 mph N/A   Overcast
12:54 PM 33.8 °F 26.4 °F 23.0 °F 65% 30.47 in 10.0 mi West 9.2 mph 19.6 mph N/A   Overcast
1:15 PM 35.6 °F 28.0 °F 23.0 °F 60% 30.46 in 10.0 mi North 10.4 mph - N/A   Overcast
1:35 PM 35.6 °F 28.6 °F 24.8 °F 65% 30.47 in 10.0 mi North 9.2 mph - N/A   Mostly Cloudy
1:55 PM 35.6 °F 28.6 °F 24.8 °F 65% 30.46 in 10.0 mi NW 9.2 mph - N/A   Mostly Cloudy
2:15 PM 35.6 °F 28.0 °F 24.8 °F 65% 30.46 in 10.0 mi NNW 10.4 mph - N/A   Scattered Clouds
2:35 PM 35.6 °F 29.2 °F 24.8 °F 65% 30.46 in 10.0 mi NNW 8.1 mph - N/A   Scattered Clouds
2:55 PM 35.6 °F 27.5 °F 23.0 °F 60% 30.47 in 10.0 mi NNW 11.5 mph 17.3 mph N/A   Mostly Cloudy
3:15 PM 33.8 °F 27.7 °F 21.2 °F 60% 30.47 in 10.0 mi NW 6.9 mph 17.3 mph N/A   Scattered Clouds
3:35 PM 33.8 °F 27.7 °F 21.2 °F 60% 30.48 in 10.0 mi NW 6.9 mph - N/A   Scattered Clouds
3:55 PM 33.8 °F 27.0 °F 21.2 °F 60% 30.49 in 10.0 mi West 8.1 mph - N/A   Scattered Clouds
4:15 PM 33.8 °F 27.0 °F 19.4 °F 56% 30.50 in 10.0 mi NW 8.1 mph - N/A   Clear
4:35 PM 33.8 °F 27.0 °F 19.4 °F 56% 30.50 in 10.0 mi WNW 8.1 mph - N/A   Clear
4:55 PM 32.0 °F 25.6 °F 19.4 °F 60% 30.51 in 10.0 mi NNW 6.9 mph - N/A   Scattered Clouds
5:15 PM 32.0 °F 25.6 °F 19.4 °F 60% 30.52 in 10.0 mi NNW 6.9 mph - N/A   Scattered Clouds
5:35 PM 32.0 °F 24.2 °F 19.4 °F 60% 30.52 in 10.0 mi WNW 9.2 mph - N/A   Clear
5:55 PM 32.0 °F 24.2 °F 19.4 °F 60% 30.53 in 10.0 mi NW 9.2 mph - N/A   Clear
6:15 PM 32.0 °F 27.5 °F 19.4 °F 60% 30.54 in 10.0 mi WNW 4.6 mph - N/A   Clear
6:35 PM 32.0 °F 28.7 °F 19.4 °F 60% 30.55 in 10.0 mi NW 3.5 mph - N/A   Clear
6:55 PM 32.0 °F 28.7 °F 19.4 °F 60% 30.56 in 10.0 mi West 3.5 mph - N/A   Mostly Cloudy
7:15 PM 32.0 °F 28.7 °F 19.4 °F 60% 30.56 in 10.0 mi West 3.5 mph - N/A   Overcast
7:35 PM 32.0 °F 25.6 °F 19.4 °F 60% 30.57 in 10.0 mi West 6.9 mph - N/A   Overcast
7:55 PM 32.0 °F 26.4 °F 19.4 °F 60% 30.57 in 10.0 mi West 5.8 mph - N/A   Overcast
8:15 PM 32.0 °F 28.7 °F 19.4 °F 60% 30.58 in 10.0 mi WNW 3.5 mph - N/A   Overcast
8:36 PM 32.0 °F 26.4 °F 19.4 °F 60% 30.57 in 10.0 mi West 5.8 mph - N/A   Mostly Cloudy
8:56 PM 32.0 °F 27.5 °F 19.4 °F 60% 30.57 in 10.0 mi NW 4.6 mph - N/A   Scattered Clouds
9:16 PM 32.0 °F 27.5 °F 19.4 °F 60% 30.57 in 10.0 mi WNW 4.6 mph - N/A   Clear
9:36 PM 32.0 °F 26.4 °F 19.4 °F 60% 30.57 in 10.0 mi NNW 5.8 mph - N/A   Clear
9:56 PM 32.0 °F 26.4 °F 19.4 °F 60% 30.57 in 10.0 mi NNW 5.8 mph - N/A   Clear
10:16 PM 32.0 °F 27.5 °F 19.4 °F 60% 30.57 in 10.0 mi NNW 4.6 mph - N/A   Clear
10:36 PM 30.2 °F - 19.4 °F 64% 30.57 in 10.0 mi Calm Calm - N/A   Clear
10:56 PM 30.2 °F 24.3 °F 19.4 °F 64% 30.57 in 10.0 mi WNW 5.8 mph - N/A   Clear
11:16 PM 30.2 °F 25.4 °F 19.4 °F 64% 30.57 in 10.0 mi NNW 4.6 mph - N/A   Clear
11:36 PM 30.2 °F 24.3 °F 19.4 °F 64% 30.57 in 10.0 mi NNW 5.8 mph - N/A   Clear
11:56 PM 30.2 °F 25.4 °F 19.4 °F 64% 30.57 in 10.0 mi North 4.6 mph - N/A   Clear